Time;durP1;ratioP1;P1;durP2;ratioP2;P2;SDS_P1;SDS_P2;PMS_P1;PMS_P2;Temp;Humidity;BMP_temperature;BMP_pressure;BME280_temperature;BME280_humidity;BME280_pressure;Samples;Min_cycle;Max_cycle;Signal;HPM_P1;HPM_P2
2022/01/15 00:01:42;;;;;;;37.97;19.27;;;6.70;99.90;;;;;;5078165;28;20473;-62
2022/01/15 00:04:08;;;;;;;30.20;16.90;;;;;;;;;;5071438;28;20543;-62
2022/01/15 00:06:34;;;;;;;28.50;17.67;;;6.60;99.90;;;;;;5070495;28;20522;-62
2022/01/15 00:08:59;;;;;;;33.80;19.00;;;6.60;99.90;;;;;;5078345;28;20546;-61
2022/01/15 00:11:25;;;;;;;33.37;19.67;;;6.80;99.90;;;;;;5074294;28;20634;-62
2022/01/15 00:13:56;;;;;;;33.57;19.00;;;;;;;;;;5065532;28;20245;-61
2022/01/15 00:16:32;;;;;;;35.40;19.23;;;;;;;;;;5083696;28;20264;-62
2022/01/15 00:19:09;;;;;;;34.23;18.87;;;6.80;99.90;;;;;;5073463;28;20454;-61
2022/01/15 00:21:35;;;;;;;29.70;19.00;;;7.00;99.90;;;;;;5067193;28;20980;-61
2022/01/15 00:24:01;;;;;;;32.50;19.60;;;6.80;99.90;;;;;;5070143;28;20511;-61
2022/01/15 00:26:28;;;;;;;32.00;19.10;;;6.70;99.90;;;;;;5071601;28;20439;-62
2022/01/15 00:28:54;;;;;;;29.63;18.60;;;;;;;;;;5078256;28;20475;-61
2022/01/15 00:31:19;;;;;;;38.70;19.90;;;6.70;99.90;;;;;;5075857;28;20479;-62
2022/01/15 00:33:45;;;;;;;31.90;18.03;;;6.60;99.90;;;;;;5071255;28;20967;-62
2022/01/15 00:36:10;;;;;;;33.13;20.70;;;6.60;99.90;;;;;;5071786;28;20448;-62
2022/01/15 00:38:36;;;;;;;35.37;18.93;;;6.60;99.90;;;;;;5072697;28;20199;-61
2022/01/15 00:41:02;;;;;;;35.27;19.30;;;;;;;;;;5075477;28;20215;-61
2022/01/15 00:43:28;;;;;;;35.20;19.83;;;;;;;;;;5070339;28;20195;-61
2022/01/15 00:45:57;;;;;;;34.40;19.40;;;;;;;;;;5072688;28;20438;-61
2022/01/15 00:48:24;;;;;;;33.10;18.53;;;6.60;99.90;;;;;;5071706;28;20422;-61
2022/01/15 00:50:50;;;;;;;33.53;18.97;;;6.60;99.90;;;;;;5075271;28;20926;-60
2022/01/15 00:53:16;;;;;;;33.87;18.90;;;;;;;;;;5075706;28;20453;-60
2022/01/15 00:55:42;;;;;;;29.20;18.57;;;6.70;99.90;;;;;;5072079;28;20424;-60
2022/01/15 00:58:07;;;;;;;35.20;19.33;;;6.70;99.90;;;;;;5074690;28;20497;-61
2022/01/15 01:00:33;;;;;;;38.57;19.10;;;6.80;99.90;;;;;;5074310;28;20211;-61
2022/01/15 01:02:59;;;;;;;33.43;18.40;;;;;;;;;;5075458;28;20191;-60
2022/01/15 01:05:25;;;;;;;36.70;19.63;;;6.80;99.90;;;;;;5074170;28;20186;-61
2022/01/15 01:07:51;;;;;;;36.67;18.63;;;6.60;99.90;;;;;;5068548;28;20421;-61
2022/01/15 01:23:44;;;;;;;33.57;18.60;;;6.70;99.90;;;;;;5070291;28;20920;-61
2022/01/15 01:26:12;;;;;;;32.87;17.60;;;;;;;;;;5071398;28;20487;-60
2022/01/15 01:28:43;;;;;;;29.50;17.17;;;;;;;;;;5071656;28;20181;-61
2022/01/15 01:31:19;;;;;;;32.00;19.00;;;6.80;99.90;;;;;;5073992;28;20930;-62
2022/01/15 01:33:49;;;;;;;30.87;19.23;;;;;;;;;;5055705;28;20884;-61
2022/01/15 01:39:05;;;;;;;33.90;17.97;;;6.70;99.90;;;;;;5069348;28;20454;-61
2022/01/15 01:41:35;;;;;;;29.93;18.20;;;;;;;;;;5070920;28;20467;-60
2022/01/15 01:44:03;;;;;;;29.87;17.60;;;;;;;;;;5068711;28;20985;-59
2022/01/15 01:46:43;;;;;;;30.57;16.87;;;6.60;99.90;;;;;;5070516;28;20443;-61
2022/01/15 01:49:13;;;;;;;30.50;17.27;;;6.60;99.90;;;;;;5069916;28;20470;-60
2022/01/15 01:51:41;;;;;;;29.90;17.80;;;6.60;99.90;;;;;;5071352;28;20521;-60
2022/01/15 01:54:09;;;;;;;34.90;17.30;;;4.80;99.90;;;;;;5068742;28;20425;-61
2022/01/15 01:56:35;;;;;;;34.77;17.77;;;6.60;99.90;;;;;;5070074;28;20473;-62
2022/01/15 01:59:03;;;;;;;30.87;17.23;;;6.70;99.90;;;;;;5071944;28;20955;-62
2022/01/15 02:01:28;;;;;;;27.30;15.50;;;6.70;99.90;;;;;;5072509;28;20510;-61
2022/01/15 02:03:54;;;;;;;27.57;16.70;;;;;;;;;;5070827;28;20447;-62
2022/01/15 02:06:20;;;;;;;24.87;16.80;;;;;;;;;;5065996;28;20210;-62
2022/01/15 02:08:48;;;;;;;33.10;17.93;;;6.60;99.90;;;;;;5058086;28;20946;-61
2022/01/15 02:11:14;;;;;;;24.80;15.60;;;6.60;99.90;;;;;;5069462;28;20745;-60
2022/01/15 02:13:42;;;;;;;30.33;15.87;;;6.50;99.90;;;;;;5069654;28;20440;-62
2022/01/15 02:16:09;;;;;;;29.30;16.33;;;5.00;99.90;;;;;;5069153;28;20792;-61
2022/01/15 02:18:35;;;;;;;31.40;16.03;;;6.50;99.90;;;;;;5064631;28;20444;-61
2022/01/15 02:23:45;;;;;;;31.00;15.80;;;6.40;99.90;;;;;;5068521;28;20531;-61
2022/01/15 02:26:16;;;;;;;28.23;16.60;;;6.40;99.90;;;;;;5072827;28;20542;-54
2022/01/15 02:28:51;;;;;;;21.37;14.90;;;6.40;99.90;;;;;;5077035;28;20473;-55
2022/01/15 02:31:17;;;;;;;26.57;16.83;;;6.20;99.90;;;;;;5079159;28;20920;-54
2022/01/15 02:33:45;;;;;;;25.70;14.83;;;6.10;99.90;;;;;;5072933;28;20637;-56
2022/01/15 02:36:14;;;;;;;26.67;15.83;;;6.20;99.90;;;;;;5079804;28;20444;-56
2022/01/15 02:38:41;;;;;;;25.40;15.10;;;6.20;99.90;;;;;;5076275;28;20490;-55
2022/01/15 02:41:07;;;;;;;24.73;14.13;;;6.20;99.90;;;;;;5082628;28;20468;-56
2022/01/15 02:43:34;;;;;;;28.00;15.40;;;6.20;99.90;;;;;;5076784;28;20479;-55
2022/01/15 02:46:18;;;;;;;27.27;14.40;;;6.30;99.90;;;;;;5080809;28;20453;-56
2022/01/15 02:48:46;;;;;;;27.00;15.37;;;6.30;99.90;;;;;;5076194;28;20469;-56
2022/01/15 02:51:12;;;;;;;27.63;16.40;;;6.30;99.90;;;;;;5084813;28;20433;-56
2022/01/15 02:53:37;;;;;;;21.37;14.43;;;6.30;99.90;;;;;;5079151;28;20436;-54
2022/01/15 02:56:03;;;;;;;26.10;13.77;;;6.30;99.90;;;;;;5080527;28;20535;-56
2022/01/15 02:58:29;;;;;;;25.33;14.03;;;6.30;99.90;;;;;;5083056;28;20202;-54
2022/01/15 03:00:54;;;;;;;22.50;13.30;;;6.20;99.90;;;;;;5079611;28;20459;-54
2022/01/15 03:03:20;;;;;;;22.80;13.60;;;6.10;99.90;;;;;;5081539;28;20180;-54
2022/01/15 03:05:46;;;;;;;25.93;12.87;;;6.10;99.90;;;;;;5070104;28;20264;-55
2022/01/15 03:08:12;;;;;;;19.80;11.60;;;6.00;99.90;;;;;;5071218;28;20514;-56
2022/01/15 03:10:37;;;;;;;23.10;11.87;;;5.90;99.90;;;;;;5076680;28;20460;-55
2022/01/15 03:13:10;;;;;;;24.50;13.50;;;6.00;99.90;;;;;;5081125;28;20192;-55
2022/01/15 03:15:36;;;;;;;19.93;11.40;;;6.10;99.90;;;;;;5096556;28;20594;-56
2022/01/15 03:18:01;;;;;;;19.53;10.97;;;5.90;99.90;;;;;;5074036;28;20414;-54
2022/01/15 03:20:27;;;;;;;20.17;10.30;;;;;;;;;;5063608;28;20195;-56
2022/01/15 03:22:53;;;;;;;24.17;11.30;;;6.00;99.90;;;;;;5062222;28;20193;-55
2022/01/15 03:25:19;;;;;;;27.17;11.63;;;;;;;;;;5075095;28;20475;-56
2022/01/15 03:27:45;;;;;;;20.10;10.90;;;;;;;;;;5078096;28;20201;-56
2022/01/15 03:30:12;;;;;;;25.93;12.53;;;6.20;99.90;;;;;;5081853;28;20537;-55
2022/01/15 03:32:42;;;;;;;18.30;10.43;;;6.20;99.90;;;;;;5084021;28;20436;-54
2022/01/15 03:35:08;;;;;;;22.33;12.80;;;;;;;;;;5080882;28;20547;-53
2022/01/15 03:37:34;;;;;;;21.13;12.03;;;6.10;99.90;;;;;;5083852;28;20536;-53
2022/01/15 03:40:00;;;;;;;26.77;11.13;;;6.20;99.90;;;;;;5082932;28;21456;-54
2022/01/15 03:42:25;;;;;;;21.13;11.80;;;;;;;;;;5092527;28;20211;-55
2022/01/15 03:44:51;;;;;;;22.47;12.10;;;;;;;;;;5079903;28;20195;-54
2022/01/15 03:47:17;;;;;;;20.53;11.80;;;6.30;99.90;;;;;;5074632;28;20558;-56
2022/01/15 03:49:43;;;;;;;24.50;12.80;;;6.40;99.90;;;;;;5081228;28;20460;-55
2022/01/15 03:52:10;;;;;;;26.13;12.03;;;6.30;99.90;;;;;;5084298;28;20983;-56
2022/01/15 03:54:37;;;;;;;23.43;11.70;;;6.20;99.90;;;;;;5074508;28;20203;-56
2022/01/15 03:57:03;;;;;;;24.17;11.60;;;6.20;99.90;;;;;;5079631;28;20451;-55
2022/01/15 03:59:29;;;;;;;23.00;12.73;;;6.20;99.90;;;;;;5063149;28;20427;-54
2022/01/15 04:01:55;;;;;;;21.77;12.03;;;6.20;99.90;;;;;;5063776;28;20528;-55
2022/01/15 04:04:21;;;;;;;18.97;11.10;;;;;;;;;;5080039;28;20536;-55
2022/01/15 04:06:46;;;;;;;18.50;11.83;;;6.30;99.90;;;;;;5070396;28;20671;-54
2022/01/15 04:09:13;;;;;;;23.63;12.70;;;6.30;99.90;;;;;;5074449;28;20430;-56
2022/01/15 04:11:39;;;;;;;32.23;17.23;;;;;;;;;;5075180;28;20195;-56
2022/01/15 04:14:05;;;;;;;17.73;9.27;;;6.20;99.50;;;;;;5092194;28;20451;-54
2022/01/15 04:16:31;;;;;;;20.80;10.90;;;6.20;96.20;;;;;;5076649;28;20447;-55
2022/01/15 04:19:00;;;;;;;15.17;8.90;;;6.10;93.10;;;;;;5075117;28;20455;-54
2022/01/15 04:21:27;;;;;;;16.90;9.77;;;6.00;91.90;;;;;;5075720;28;20660;-54
2022/01/15 04:23:53;;;;;;;20.17;10.23;;;6.00;91.70;;;;;;5079726;28;20450;-56
2022/01/15 04:26:23;;;;;;;20.53;8.70;;;6.00;91.80;;;;;;5072201;28;20975;-54
2022/01/15 04:28:49;;;;;;;14.80;9.30;;;;;;;;;;5067255;28;21076;-55
2022/01/15 04:31:16;;;;;;;13.90;8.20;;;6.00;64.30;;;;;;5058919;28;20591;-55
2022/01/15 04:33:42;;;;;;;15.27;8.00;;;;;;;;;;5079415;28;20899;-55
2022/01/15 04:36:09;;;;;;;15.00;8.17;;;5.90;42.50;;;;;;5084071;28;20596;-55
2022/01/15 04:38:37;;;;;;;18.00;7.83;;;5.90;39.90;;;;;;5071350;28;20974;-56
2022/01/15 04:41:04;;;;;;;18.53;9.47;;;5.90;27.20;;;;;;5078570;28;20971;-55
2022/01/15 04:43:30;;;;;;;14.10;7.97;;;;;;;;;;5050516;28;20451;-55
2022/01/15 04:45:56;;;;;;;22.67;9.03;;;;;;;;;;5060572;28;20461;-55
2022/01/15 04:48:21;;;;;;;14.53;7.50;;;;;;;;;;5072935;28;20819;-54
2022/01/15 04:50:47;;;;;;;15.83;8.43;;;5.80;10.10;;;;;;5073923;28;20445;-54
2022/01/15 04:53:13;;;;;;;12.70;6.67;;;5.90;6.90;;;;;;5070364;28;20431;-55
2022/01/15 04:55:38;;;;;;;12.07;6.80;;;8.70;8.20;;;;;;5076849;28;20208;-55
2022/01/15 04:58:06;;;;;;;25.10;7.50;;;5.90;1.00;;;;;;5071188;28;20191;-55
2022/01/15 05:00:33;;;;;;;14.23;6.90;;;5.90;1.00;;;;;;5078042;28;20203;-55
2022/01/15 05:02:58;;;;;;;16.60;7.93;;;6.70;1.00;;;;;;5084439;28;20920;-53
2022/01/15 05:05:25;;;;;;;17.67;7.23;;;5.90;1.00;;;;;;5074217;28;20455;-55
2022/01/15 05:07:54;;;;;;;26.37;8.17;;;5.80;1.00;;;;;;5076226;28;20428;-55
2022/01/15 05:10:27;;;;;;;21.70;7.90;;;5.70;8.40;;;;;;5079552;28;20989;-54
2022/01/15 05:12:55;;;;;;;19.10;7.47;;;;;;;;;;5081567;28;20449;-55
2022/01/15 05:15:22;;;;;;;12.20;7.53;;;5.70;3.60;;;;;;5080518;28;20474;-55
2022/01/15 05:17:48;;;;;;;25.97;8.17;;;;;;;;;;5082454;28;20492;-55
2022/01/15 05:20:17;;;;;;;18.03;8.20;;;5.70;1.00;;;;;;5074612;28;20473;-54
2022/01/15 05:22:44;;;;;;;12.87;7.70;;;5.70;1.00;;;;;;5082564;28;20748;-54
2022/01/15 05:25:13;;;;;;;20.53;8.20;;;5.50;1.00;;;;;;5077188;28;20473;-54
2022/01/15 05:27:40;;;;;;;17.93;6.80;;;5.50;5.30;;;;;;5079649;28;20447;-53
2022/01/15 05:30:07;;;;;;;21.43;8.13;;;5.50;3.40;;;;;;5062968;28;20465;-55
2022/01/15 05:32:33;;;;;;;15.50;7.67;;;5.60;1.50;;;;;;5068339;28;20470;-55
2022/01/15 05:34:58;;;;;;;19.40;7.50;;;5.50;1.00;;;;;;5087038;28;20822;-53
2022/01/15 05:37:24;;;;;;;17.63;7.70;;;5.40;3.80;;;;;;5076404;28;20472;-56
2022/01/15 05:39:50;;;;;;;18.43;7.77;;;5.40;9.30;;;;;;5078443;28;20195;-54
2022/01/15 05:42:16;;;;;;;20.17;8.60;;;5.40;10.60;;;;;;5081563;28;20557;-56
2022/01/15 05:44:41;;;;;;;15.60;7.80;;;5.50;14.00;;;;;;5059838;28;20645;-56
2022/01/15 05:47:08;;;;;;;16.80;8.47;;;5.40;13.90;;;;;;5078042;28;20194;-56
2022/01/15 05:49:34;;;;;;;18.53;7.77;;;5.30;16.70;;;;;;5086716;28;20440;-54
2022/01/15 05:51:59;;;;;;;19.40;9.90;;;5.40;16.50;;;;;;5088394;28;20437;-55
2022/01/15 05:54:25;;;;;;;17.53;7.73;;;5.40;17.60;;;;;;5079735;28;20811;-54
2022/01/15 05:56:51;;;;;;;20.73;9.07;;;5.40;16.70;;;;;;5075803;28;20226;-56
2022/01/15 05:59:16;;;;;;;15.37;7.50;;;5.40;13.90;;;;;;5077033;28;20217;-55
2022/01/15 06:01:42;;;;;;;22.00;8.90;;;5.40;13.80;;;;;;5078596;28;20593;-55
2022/01/15 06:04:07;;;;;;;21.70;8.17;;;5.40;15.50;;;;;;5077195;28;20683;-55
2022/01/15 06:06:33;;;;;;;15.53;7.63;;;;;;;;;;5082982;28;20669;-54
2022/01/15 06:08:59;;;;;;;19.37;8.13;;;5.40;9.30;;;;;;5081420;28;20192;-55
2022/01/15 06:11:25;;;;;;;20.43;8.17;;;5.30;13.70;;;;;;5073474;28;20424;-55
2022/01/15 06:13:51;;;;;;;17.10;7.93;;;5.30;17.90;;;;;;5071431;28;20199;-54
2022/01/15 06:16:17;;;;;;;19.40;7.90;;;5.30;16.50;;;;;;5074135;28;20262;-56
2022/01/15 06:18:42;;;;;;;16.03;7.97;;;5.30;15.70;;;;;;5071926;28;20663;-54
2022/01/15 06:21:09;;;;;;;18.03;6.93;;;;;;;;;;5077330;28;20429;-55
2022/01/15 06:23:34;;;;;;;16.50;7.50;;;5.20;16.50;;;;;;5078689;28;20255;-55
2022/01/15 06:26:00;;;;;;;18.27;8.00;;;5.20;19.70;;;;;;5077106;28;20563;-55
2022/01/15 06:28:26;;;;;;;26.53;7.73;;;5.30;20.80;;;;;;5081800;28;20198;-57
2022/01/15 06:30:52;;;;;;;17.80;9.00;;;;;;;;;;5061630;28;20443;-56
2022/01/15 06:33:17;;;;;;;17.80;8.20;;;5.30;18.30;;;;;;5082203;28;20746;-55
2022/01/15 06:35:43;;;;;;;21.20;8.23;;;5.30;18.30;;;;;;5082591;28;20447;-54
2022/01/15 06:38:09;;;;;;;15.97;8.77;;;5.10;22.50;;;;;;5081513;28;20194;-55
2022/01/15 06:40:35;;;;;;;17.70;9.40;;;5.10;27.60;;;;;;5073111;28;20713;-56
2022/01/15 06:43:01;;;;;;;26.00;10.30;;;5.00;31.30;;;;;;5071843;28;20188;-54
2022/01/15 06:45:28;;;;;;;22.07;11.40;;;5.10;36.80;;;;;;5079499;28;20791;-55
2022/01/15 06:47:53;;;;;;;20.07;10.00;;;5.10;36.70;;;;;;5070725;28;20556;-55
2022/01/15 06:50:19;;;;;;;23.83;10.67;;;5.00;41.20;;;;;;5083926;28;20888;-56
2022/01/15 06:52:45;;;;;;;23.47;9.47;;;;;;;;;;5058235;28;20273;-56
2022/01/15 06:55:11;;;;;;;23.67;10.93;;;5.10;54.50;;;;;;5072195;28;20416;-54
2022/01/15 06:57:37;;;;;;;20.23;8.87;;;5.10;54.80;;;;;;5073782;28;20452;-55
2022/01/15 07:00:05;;;;;;;34.70;10.13;;;5.40;47.50;;;;;;5075506;28;20538;-55
2022/01/15 07:02:31;;;;;;;19.87;10.60;;;5.50;42.20;;;;;;5075347;28;20208;-54
2022/01/15 07:04:57;;;;;;;22.20;10.23;;;;;;;;;;5071636;28;20473;-60
2022/01/15 07:07:23;;;;;;;23.50;10.67;;;;;;;;;;5063626;28;20444;-62
2022/01/15 07:09:49;;;;;;;20.33;9.70;;;5.50;36.80;;;;;;5059462;28;20502;-61
2022/01/15 07:12:14;;;;;;;22.73;10.83;;;5.40;36.70;;;;;;5081792;28;20544;-62
2022/01/15 07:14:40;;;;;;;20.70;11.60;;;5.40;42.20;;;;;;5086421;28;20211;-60
2022/01/15 07:17:06;;;;;;;34.30;18.57;;;5.40;39.60;;;;;;5094830;28;20208;-63
2022/01/15 07:19:31;;;;;;;25.10;11.50;;;5.60;37.70;;;;;;5090507;28;20179;-61
2022/01/15 07:21:57;;;;;;;21.27;11.73;;;5.70;33.90;;;;;;5085248;28;20207;-62
2022/01/15 07:24:23;;;;;;;19.23;11.17;;;;;;;;;;5079042;28;20232;-61
2022/01/15 07:26:49;;;;;;;20.63;10.07;;;5.90;23.80;;;;;;5083241;28;20627;-63
2022/01/15 07:29:16;;;;;;;28.43;12.27;;;;;;;;;;5081227;28;20412;-62
2022/01/15 07:31:44;;;;;;;25.77;10.90;;;6.00;9.60;;;;;;5082199;28;20188;-59
2022/01/15 07:34:10;;;;;;;22.03;10.50;;;5.90;9.70;;;;;;5080075;28;20452;-61
2022/01/15 07:36:37;;;;;;;19.67;10.37;;;5.80;11.80;;;;;;5075214;28;20447;-61
2022/01/15 07:39:04;;;;;;;22.83;11.37;;;5.90;12.60;;;;;;5082715;28;20655;-61
2022/01/15 07:41:30;;;;;;;25.23;10.13;;;5.90;9.50;;;;;;5086917;28;20473;-63
2022/01/15 07:43:56;;;;;;;28.23;11.27;;;5.70;12.30;;;;;;5083541;28;20422;-61
2022/01/15 07:46:22;;;;;;;22.80;11.33;;;;;;;;;;5086830;28;20186;-62
2022/01/15 07:48:47;;;;;;;31.33;12.23;;;5.70;15.90;;;;;;5077636;28;20205;-61
2022/01/15 07:51:13;;;;;;;24.37;11.37;;;5.60;21.00;;;;;;5079866;28;20449;-61
2022/01/15 07:53:39;;;;;;;26.87;12.83;;;;;;;;;;5080238;28;20191;-60
2022/01/15 07:56:05;;;;;;;27.47;12.10;;;;;;;;;;5086307;28;20637;-60
2022/01/15 07:58:31;;;;;;;25.70;11.93;;;;;;;;;;5086596;28;20446;-61
2022/01/15 08:00:57;;;;;;;21.03;11.00;;;;;;;;;;5086770;28;20462;-61
2022/01/15 08:03:22;;;;;;;26.43;12.27;;;5.50;30.50;;;;;;5087991;28;20467;-60
2022/01/15 08:05:49;;;;;;;26.30;11.60;;;5.60;36.00;;;;;;5081497;28;20536;-61
2022/01/15 08:08:15;;;;;;;21.60;11.37;;;5.70;29.50;;;;;;5079397;28;20558;-61
2022/01/15 08:10:42;;;;;;;27.10;12.80;;;5.70;27.40;;;;;;5090936;28;20409;-62
2022/01/15 08:13:08;;;;;;;28.67;13.10;;;;;;;;;;5064840;28;20844;-60
2022/01/15 08:15:34;;;;;;;25.37;11.10;;;5.80;23.80;;;;;;5085834;28;20477;-60
2022/01/15 08:18:00;;;;;;;21.70;11.97;;;5.80;21.20;;;;;;5085150;28;20445;-60
2022/01/15 08:20:26;;;;;;;23.60;12.53;;;;;;;;;;5088090;28;20441;-60
2022/01/15 08:22:52;;;;;;;22.40;11.13;;;5.90;14.60;;;;;;5082189;28;20461;-60
2022/01/15 08:25:18;;;;;;;27.80;12.73;;;5.90;14.10;;;;;;5090942;28;20453;-60
2022/01/15 08:27:46;;;;;;;25.43;11.87;;;6.00;14.20;;;;;;5059077;28;20445;-61
2022/01/15 08:30:12;;;;;;;22.57;11.53;;;6.00;6.50;;;;;;5062892;28;20529;-62
2022/01/15 08:32:38;;;;;;;26.60;13.40;;;;;;;;;;5076713;28;21014;-60
2022/01/15 08:35:08;;;;;;;24.60;11.17;;;6.00;7.90;;;;;;5081527;28;20411;-62
2022/01/15 08:37:37;;;;;;;23.60;11.60;;;6.00;1.40;;;;;;5084415;28;20775;-63
2022/01/15 08:40:04;;;;;;;22.80;10.93;;;6.00;1.00;;;;;;5059337;28;20776;-59
2022/01/15 08:42:30;;;;;;;22.20;13.23;;;;;;;;;;5078241;28;20468;-58
2022/01/15 08:44:55;;;;;;;21.90;10.70;;;6.10;1.00;;;;;;5076220;28;20498;-58
2022/01/15 08:47:21;;;;;;;20.07;9.73;;;6.20;1.00;;;;;;5085447;28;20574;-57
2022/01/15 08:49:47;;;;;;;25.93;11.70;;;;;;;;;;5076427;28;20192;-57
2022/01/15 08:52:13;;;;;;;22.60;11.00;;;6.30;1.00;;;;;;5077404;28;20189;-56
2022/01/15 08:54:38;;;;;;;25.37;11.60;;;6.20;1.00;;;;;;5072844;28;20450;-55
2022/01/15 08:57:04;;;;;;;23.27;11.60;;;6.20;1.00;;;;;;5070130;28;20495;-57
2022/01/15 08:59:30;;;;;;;28.13;11.40;;;;;;;;;;5072573;28;20241;-57
2022/01/15 09:01:58;;;;;;;26.57;11.13;;;6.30;1.00;;;;;;5069654;28;20217;-57
2022/01/15 09:04:24;;;;;;;17.83;11.10;;;6.30;1.00;;;;;;5069393;28;20448;-56
2022/01/15 09:06:50;;;;;;;21.37;11.00;;;6.40;1.00;;;;;;5073033;28;20452;-57
2022/01/15 09:09:16;;;;;;;24.20;10.63;;;;;;;;;;5070633;28;20467;-55
2022/01/15 09:11:42;;;;;;;21.60;9.97;;;6.70;1.00;;;;;;5068805;28;20510;-55
2022/01/15 09:14:08;;;;;;;20.90;10.10;;;6.70;1.00;;;;;;5069570;28;20471;-57
2022/01/15 09:16:34;;;;;;;33.60;10.87;;;;;;;;;;5070717;28;20181;-57
2022/01/15 09:19:00;;;;;;;20.80;11.20;;;6.90;1.00;;;;;;5071594;28;20457;-56
2022/01/15 09:21:25;;;;;;;25.30;8.47;;;;;;;;;;5070874;28;20472;-56
2022/01/15 09:23:51;;;;;;;23.60;9.20;;;6.90;1.00;;;;;;5050806;28;20205;-57
2022/01/15 09:26:45;;;;;;;16.70;8.30;;;7.10;1.00;;;;;;5069218;28;20424;-58
2022/01/15 09:31:54;;;;;;;15.80;7.67;;;7.00;1.00;;;;;;5080710;28;20501;-57
2022/01/15 09:34:20;;;;;;;18.87;9.20;;;;;;;;;;5070920;28;20850;-57
2022/01/15 09:36:46;;;;;;;20.30;7.43;;;;;;;;;;5071829;28;20674;-56
2022/01/15 09:39:12;;;;;;;16.23;8.67;;;7.30;1.00;;;;;;5071376;28;20494;-57
2022/01/15 09:41:43;;;;;;;22.17;8.00;;;7.20;1.00;;;;;;5070368;28;20468;-57
2022/01/15 09:44:09;;;;;;;24.50;7.30;;;7.20;1.00;;;;;;5061004;28;20219;-57
2022/01/15 09:46:36;;;;;;;20.60;7.07;;;7.30;1.00;;;;;;5065127;28;20481;-57
2022/01/15 09:49:02;;;;;;;16.83;7.97;;;7.30;1.00;;;;;;5090341;28;20414;-55
2022/01/15 09:51:29;;;;;;;16.70;8.00;;;7.30;1.00;;;;;;5090686;28;20803;-57
2022/01/15 09:53:56;;;;;;;19.93;7.67;;;7.40;1.00;;;;;;5090795;28;20941;-57
2022/01/15 09:56:22;;;;;;;23.33;6.40;;;7.30;1.00;;;;;;5090661;28;20443;-56
2022/01/15 09:58:48;;;;;;;18.40;5.50;;;;;;;;;;5090588;28;20439;-56
2022/01/15 10:01:14;;;;;;;16.93;5.67;;;7.30;1.00;;;;;;5071583;28;20506;-57
2022/01/15 10:03:39;;;;;;;16.90;5.93;;;7.20;1.00;;;;;;5073204;28;20450;-56
2022/01/15 10:06:05;;;;;;;13.70;5.43;;;7.40;1.00;;;;;;5077446;28;20201;-56
2022/01/15 10:08:31;;;;;;;17.33;5.37;;;7.40;1.00;;;;;;5070259;28;20216;-57
2022/01/15 10:10:59;;;;;;;15.33;5.80;;;;;;;;;;5086336;28;20492;-54
2022/01/15 10:13:30;;;;;;;16.93;4.50;;;7.70;1.00;;;;;;5090290;28;20192;-57
2022/01/15 10:15:58;;;;;;;14.47;4.97;;;8.90;1.00;;;;;;5090312;28;20436;-55
2022/01/15 10:18:26;;;;;;;15.57;4.57;;;7.50;1.00;;;;;;5079003;28;20523;-57
2022/01/15 10:20:55;;;;;;;15.90;4.80;;;7.40;1.00;;;;;;5070060;28;21257;-56
2022/01/15 10:23:23;;;;;;;16.87;4.27;;;7.20;1.00;;;;;;5072845;28;20434;-56
2022/01/15 10:26:11;;;;;;;14.10;4.60;;;7.30;1.00;;;;;;5090116;28;20460;-54
2022/01/15 10:29:01;;;;;;;17.00;4.10;;;7.40;1.00;;;;;;5081408;28;20930;-56
2022/01/15 10:31:29;;;;;;;15.03;4.30;;;7.20;1.00;;;;;;5051921;28;20453;-57
2022/01/15 10:33:59;;;;;;;15.10;4.40;;;7.10;1.00;;;;;;5070165;28;20433;-57
2022/01/15 10:36:29;;;;;;;15.43;4.57;;;7.20;1.00;;;;;;5072718;28;20928;-56
2022/01/15 10:39:15;;;;;;;14.87;4.00;;;7.20;1.00;;;;;;5081132;28;20493;-56
2022/01/15 10:41:41;;;;;;;11.60;3.63;;;7.30;1.00;;;;;;5089917;28;20454;-56
2022/01/15 10:44:33;;;;;;;21.33;5.20;;;7.50;1.00;;;;;;5082901;28;20428;-57
2022/01/15 10:47:04;;;;;;;19.77;4.87;;;7.40;1.00;;;;;;5084171;28;20401;-57
2022/01/15 10:49:30;;;;;;;18.47;4.33;;;7.30;1.00;;;;;;5089700;28;20422;-57
2022/01/15 10:52:19;;;;;;;17.23;4.10;;;7.30;1.00;;;;;;5087136;28;20431;-56
2022/01/15 10:55:06;;;;;;;9.57;2.60;;;7.20;1.00;;;;;;5074850;28;20802;-56
2022/01/15 10:57:33;;;;;;;17.33;4.97;;;;;;;;;;5070994;28;20448;-57
2022/01/15 10:59:59;;;;;;;18.93;4.70;;;7.40;1.00;;;;;;5076643;28;20448;-57
2022/01/15 11:02:25;;;;;;;15.33;3.47;;;;;;;;;;5069707;28;20493;-57
2022/01/15 11:04:51;;;;;;;12.50;4.27;;;7.40;1.00;;;;;;5069581;28;20188;-59
2022/01/15 11:07:17;;;;;;;15.57;3.20;;;7.50;1.00;;;;;;5067809;28;20505;-57
2022/01/15 11:09:44;;;;;;;14.70;3.40;;;7.50;1.00;;;;;;5065628;28;20416;-57
2022/01/15 11:12:11;;;;;;;11.50;4.10;;;7.70;1.00;;;;;;5079896;28;20758;-57
2022/01/15 11:14:37;;;;;;;19.80;4.47;;;;;;;;;;5069454;28;20472;-58
2022/01/15 11:17:03;;;;;;;13.33;3.80;;;7.50;1.00;;;;;;5054871;28;20451;-57
2022/01/15 11:19:33;;;;;;;15.50;4.00;;;7.50;1.00;;;;;;5067159;28;20538;-58
2022/01/15 11:22:00;;;;;;;11.47;3.30;;;7.60;1.00;;;;;;5068716;28;20454;-55
2022/01/15 11:24:26;;;;;;;17.00;4.13;;;7.50;1.00;;;;;;5064197;28;21050;-57
2022/01/15 11:27:00;;;;;;;14.00;4.80;;;7.30;1.00;;;;;;5072451;28;20523;-57
2022/01/15 11:29:28;;;;;;;12.00;3.57;;;7.10;1.00;;;;;;5071917;28;20260;-57
2022/01/15 11:32:00;;;;;;;18.33;3.80;;;7.00;1.00;;;;;;5073925;28;20420;-57
2022/01/15 11:34:27;;;;;;;13.20;2.80;;;6.90;1.00;;;;;;5069674;28;20466;-57
2022/01/15 11:36:53;;;;;;;11.83;3.93;;;6.90;1.00;;;;;;5085537;28;20419;-57
2022/01/15 11:39:35;;;;;;;11.57;3.03;;;6.90;1.00;;;;;;5075429;28;20497;-57
2022/01/15 11:42:02;;;;;;;10.93;3.80;;;7.90;1.00;;;;;;5081881;28;20201;-57
2022/01/15 11:44:33;;;;;;;14.30;3.53;;;7.00;1.00;;;;;;5056086;28;20917;-57
2022/01/15 11:47:17;;;;;;;23.63;4.40;;;7.20;1.00;;;;;;5083773;28;20442;-57
2022/01/15 11:49:45;;;;;;;17.93;4.27;;;7.30;1.00;;;;;;5076504;28;20440;-57
2022/01/15 11:52:11;;;;;;;21.37;4.77;;;;;;;;;;5071852;28;20442;-58
2022/01/15 11:55:02;;;;;;;17.30;3.93;;;7.30;1.00;;;;;;5072130;28;20956;-58
2022/01/15 11:57:35;;;;;;;12.73;3.53;;;7.30;1.00;;;;;;5065996;28;20854;-57
2022/01/15 12:00:06;;;;;;;15.23;4.17;;;7.40;1.00;;;;;;5085862;28;20459;-57
2022/01/15 12:02:54;;;;;;;9.67;3.60;;;7.60;1.00;;;;;;5091337;28;20473;-57
2022/01/15 12:05:22;;;;;;;13.73;4.13;;;7.60;1.00;;;;;;5072302;28;20435;-58
2022/01/15 12:08:00;;;;;;;10.03;3.47;;;7.60;1.00;;;;;;5070344;28;20446;-57
2022/01/15 12:10:43;;;;;;;16.83;3.47;;;7.60;1.00;;;;;;5059584;28;20439;-57
2022/01/15 12:13:18;;;;;;;11.53;4.47;;;7.50;1.00;;;;;;5069242;28;20837;-57
2022/01/15 12:15:45;;;;;;;12.10;3.60;;;7.60;1.00;;;;;;5079278;28;20453;-57
2022/01/15 12:18:15;;;;;;;17.03;3.93;;;7.60;1.00;;;;;;5072513;28;20511;-57
2022/01/15 12:20:42;;;;;;;15.90;3.10;;;7.70;1.00;;;;;;5080878;28;20411;-57
2022/01/15 12:23:19;;;;;;;10.40;3.60;;;7.70;1.00;;;;;;5068607;28;20516;-57
2022/01/15 12:25:52;;;;;;;16.83;3.40;;;7.90;1.00;;;;;;5071965;28;20480;-57
2022/01/15 12:28:19;;;;;;;11.30;3.20;;;7.80;1.00;;;;;;5075764;28;20423;-58
2022/01/15 12:30:48;;;;;;;8.77;3.53;;;7.90;1.00;;;;;;5071905;28;20476;-57
2022/01/15 12:33:15;;;;;;;12.50;3.60;;;7.90;1.00;;;;;;5076972;28;20576;-58
2022/01/15 12:35:44;;;;;;;16.20;4.10;;;7.90;1.00;;;;;;5091549;28;20425;-57
2022/01/15 12:38:16;;;;;;;10.53;3.87;;;7.80;1.00;;;;;;5091925;28;20427;-57
2022/01/15 12:40:45;;;;;;;9.63;3.60;;;7.70;1.00;;;;;;5079944;28;20902;-58
2022/01/15 12:43:20;;;;;;;11.07;3.40;;;7.70;1.00;;;;;;5075181;28;20424;-57
2022/01/15 12:45:47;;;;;;;12.77;3.73;;;7.60;1.00;;;;;;5074821;28;20873;-58
2022/01/15 12:48:18;;;;;;;8.43;3.00;;;7.50;1.00;;;;;;5071651;28;20409;-57
2022/01/15 12:50:47;;;;;;;24.03;3.47;;;10.80;1.00;;;;;;5075693;28;20554;-58
2022/01/15 12:53:14;;;;;;;22.03;4.33;;;7.70;1.00;;;;;;5085363;28;20418;-57
2022/01/15 12:55:40;;;;;;;19.10;3.87;;;7.70;1.00;;;;;;5083354;28;20440;-58
2022/01/15 12:58:07;;;;;;;10.33;3.50;;;7.70;1.00;;;;;;5091631;28;20426;-58
2022/01/15 13:00:35;;;;;;;12.50;4.73;;;7.70;1.00;;;;;;5079073;28;20428;-57
2022/01/15 13:03:09;;;;;;;18.27;4.50;;;7.90;1.00;;;;;;5071569;28;20498;-58
2022/01/15 13:05:39;;;;;;;7.17;2.90;;;7.90;1.00;;;;;;5079027;28;20475;-56
2022/01/15 13:08:11;;;;;;;11.67;3.40;;;7.90;1.00;;;;;;5071912;28;20945;-57
2022/01/15 13:13:23;;;;;;;11.70;2.73;;;7.80;1.00;;;;;;5082105;28;20439;-58
2022/01/15 13:16:12;;;;;;;11.57;3.90;;;7.80;1.00;;;;;;5088650;28;20548;-58
2022/01/15 13:18:38;;;;;;;7.27;3.70;;;7.80;1.00;;;;;;5062424;28;20485;-59
2022/01/15 13:21:07;;;;;;;13.20;3.80;;;7.80;1.00;;;;;;5068439;28;20436;-58
2022/01/15 13:23:41;;;;;;;9.20;2.73;;;7.80;1.00;;;;;;5081300;28;20448;-57
2022/01/15 13:26:09;;;;;;;8.57;2.63;;;7.80;1.00;;;;;;5091052;28;20574;-58
2022/01/15 13:28:36;;;;;;;9.07;2.87;;;7.70;1.00;;;;;;5064702;28;20430;-58
2022/01/15 13:31:02;;;;;;;11.97;3.23;;;7.60;1.00;;;;;;5070660;28;20582;-58